This is the latest recevied weather packets stored in our database for station/object K1JO. If no packets are shown the sender has not sent any weather packets the latest 10 day(s).
| Time | Temp. | Humidity | Pressure | Rain* | Wind** | Luminosity | Snow |
|---|---|---|---|---|---|---|---|
| 1777666431 | 14.44° C | 55% | 1002.5 hPa | 0 mm | - | 204 W/m² | - |
| 1777666128 | 14.44° C | 54% | 1002.5 hPa | 0 mm | - | 180 W/m² | - |
| 1777665825 | 14.44° C | 53% | 1002.3 hPa | 0 mm | - | 199 W/m² | - |
| 1777665523 | 14.44° C | 54% | 1002.5 hPa | 0 mm | - | 235 W/m² | - |
| 1777665218 | 14.44° C | 53% | 1002.3 hPa | 0 mm | - | 219 W/m² | - |
| 1777664915 | 14.44° C | 55% | 1002.4 hPa | 0 mm | - | 231 W/m² | - |
| 1777664611 | 14.44° C | 55% | 1002.2 hPa | 0 mm | - | 231 W/m² | - |
| 1777664307 | 14.44° C | 55% | 1002.3 hPa | 0 mm | - | 303 W/m² | - |
| 1777664006 | 14.44° C | 55% | 1002.2 hPa | 0 mm | - | 236 W/m² | - |
| 1777663703 | 14.44° C | 53% | 1002.2 hPa | 0 mm | - | 246 W/m² | - |
| 1777663400 | 14.44° C | 53% | 1002.2 hPa | 0 mm | - | 284 W/m² | - |
| 1777663097 | 14.44° C | 53% | 1002.1 hPa | 0 mm | - | 284 W/m² | - |
| 1777662794 | 14.44° C | 53% | 1002.3 hPa | 0 mm | - | 284 W/m² | - |
| 1777662491 | 14.44° C | 54% | 1002.2 hPa | 0 mm | - | 243 W/m² | - |
| 1777662187 | 14.44° C | 56% | 1002.3 hPa | 0 mm | - | 289 W/m² | - |
| 1777661882 | 15° C | 52% | 1002.1 hPa | 0 mm | - | 348 W/m² | - |
| 1777661579 | 14.44° C | 59% | 1002.2 hPa | 0 mm | - | 526 W/m² | - |
| 1777661274 | 14.44° C | 56% | 1002 hPa | 0 mm | - | 323 W/m² | - |
| 1777660970 | 15° C | 55% | 1002 hPa | 0 mm | - | 309 W/m² | - |
| 1777660666 | 15.56° C | 61% | 1002.1 hPa | 0 mm | - | 282 W/m² | - |
| 1777660364 | 15.56° C | 52% | 1002 hPa | 0 mm | - | 656 W/m² | - |
| 1777660059 | 13.89° C | 59% | 1002.2 hPa | 0 mm | - | 396 W/m² | - |
| 1777659757 | 14.44° C | 57% | 1002 hPa | 0 mm | - | 280 W/m² | - |
| 1777659454 | 14.44° C | 56% | 1002.2 hPa | 0 mm | - | 266 W/m² | - |
| 1777659151 | 14.44° C | 56% | 1002.2 hPa | 0 mm | - | 266 W/m² | - |
* Rain latest hour (hover to see other rain measurements)
** Current wind speed in m/s (hover to see current wind gust speed)